Time;durP1;ratioP1;P1;durP2;ratioP2;P2;SDS_P1;SDS_P2;PMS_P1;PMS_P2;Temp;Humidity;BMP_temperature;BMP_pressure;BME280_temperature;BME280_humidity;BME280_pressure;Samples;Min_cycle;Max_cycle;Signal;HPM_P1;HPM_P2
2024/02/08 00:01:33;;;;;;;;;;;5.20;89.40;;;;;;4964776;28;19930;-62
2024/02/08 00:04:08;;;;;;;;;;;5.20;89.30;;;;;;4967375;28;19936;-62
2024/02/08 00:06:41;;;;;;;;;;;5.20;89.40;;;;;;4967439;28;19933;-62
2024/02/08 00:09:08;;;;;;;;;;;5.20;89.30;;;;;;4967452;28;19926;-61
2024/02/08 00:11:41;;;;;;;;;;;5.20;89.30;;;;;;4966703;28;19934;-62
2024/02/08 00:14:14;;;;;;;;;;;5.20;89.30;;;;;;4966586;28;19926;-61
2024/02/08 00:16:47;;;;;;;;;;;5.20;89.40;;;;;;4966847;28;19965;-62
2024/02/08 00:19:15;;;;;;;;;;;5.20;89.40;;;;;;4966586;28;19980;-62
2024/02/08 00:21:50;;;;;;;;;;;5.10;89.50;;;;;;4960187;28;19942;-61
2024/02/08 00:24:23;;;;;;;;;;;5.10;89.60;;;;;;4958792;28;19966;-61
2024/02/08 00:26:58;;;;;;;;;;;5.20;89.70;;;;;;4969738;28;19930;-61
2024/02/08 00:29:25;;;;;;;;;;;5.00;89.60;;;;;;4968539;28;19993;-61
2024/02/08 00:31:59;;;;;;;;;;;5.10;89.80;;;;;;4968242;28;20013;-60
2024/02/08 00:34:34;;;;;;;;;;;5.10;89.60;;;;;;4972165;28;19933;-61
2024/02/08 00:37:00;;;;;;;;;;;5.10;89.60;;;;;;4973244;28;20404;-61
2024/02/08 00:39:34;;;;;;;;;;;5.10;89.70;;;;;;4972686;28;19966;-60
2024/02/08 00:42:11;;;;;;;;;;;5.20;89.70;;;;;;4972058;28;20294;-59
2024/02/08 00:44:44;;;;;;;;;;;5.20;89.70;;;;;;4972673;28;19976;-60
2024/02/08 00:47:17;;;;;;;;;;;5.20;89.70;;;;;;4971524;28;19926;-61
2024/02/08 00:49:52;;;;;;;;;;;5.20;89.50;;;;;;4972127;28;19933;-61
2024/02/08 00:52:25;;;;;;;;;;;5.20;89.70;;;;;;4967988;28;19937;-59
2024/02/08 00:54:59;;;;;;;;;;;5.20;89.70;;;;;;4972363;28;20008;-61
2024/02/08 00:57:33;;;;;;;;;;;5.20;89.60;;;;;;4970528;28;20081;-61
2024/02/08 01:00:07;;;;;;;;;;;5.20;89.60;;;;;;4972647;28;20021;-61
2024/02/08 01:02:40;;;;;;;;;;;5.20;89.40;;;;;;4969704;28;20455;-61
2024/02/08 01:05:15;;;;;;;;;;;5.10;89.70;;;;;;4971008;28;20157;-61
2024/02/08 01:07:48;;;;;;;;;;;5.20;89.90;;;;;;4970236;28;19934;-61
2024/02/08 01:10:21;;;;;;;;;;;5.20;89.80;;;;;;4971534;28;20373;-59
2024/02/08 01:12:54;;;;;;;;;;;5.20;89.70;;;;;;4969700;28;19934;-61
2024/02/08 01:15:28;;;;;;;;;;;5.20;89.60;;;;;;4970310;28;19930;-60
2024/02/08 01:18:03;;;;;;;;;;;5.10;89.80;;;;;;4969477;28;19926;-59
2024/02/08 01:20:32;;;;;;;;;;;5.20;89.90;;;;;;4970538;28;19992;-60
2024/02/08 01:23:04;;;;;;;;;;;5.20;89.90;;;;;;4970702;28;19926;-60
2024/02/08 01:25:41;;;;;;;;;;;5.20;89.90;;;;;;4968135;28;19996;-59
2024/02/08 01:28:14;;;;;;;;;;;5.10;89.90;;;;;;4970877;28;19926;-61
2024/02/08 01:30:47;;;;;;;;;;;5.20;89.90;;;;;;4970378;28;19926;-62
2024/02/08 01:33:20;;;;;;;;;;;5.20;89.80;;;;;;4969204;28;20356;-62
2024/02/08 01:35:56;;;;;;;;;;;5.20;89.90;;;;;;4969791;28;19953;-62
2024/02/08 01:38:29;;;;;;;;;;;5.10;90.00;;;;;;4969577;28;19952;-61
2024/02/08 01:41:06;;;;;;;;;;;5.20;89.90;;;;;;4970762;28;19958;-62
2024/02/08 01:43:38;;;;;;;;;;;5.20;89.90;;;;;;4969786;28;20381;-73
2024/02/08 01:46:12;;;;;;;;;;;5.20;89.90;;;;;;4970858;28;20300;-73
2024/02/08 01:48:45;;;;;;;;;;;5.20;89.90;;;;;;4970611;28;20025;-74
2024/02/08 01:51:22;;;;;;;;;;;5.20;90.10;;;;;;4971213;28;19930;-73
2024/02/08 01:53:56;;;;;;;;;;;5.20;90.00;;;;;;4969464;28;19965;-71
2024/02/08 01:56:30;;;;;;;;;;;5.20;90.00;;;;;;4969402;28;19930;-71
2024/02/08 01:59:05;;;;;;;;;;;5.20;90.00;;;;;;4967540;28;19941;-74
2024/02/08 02:01:45;;;;;;;;;;;5.20;90.00;;;;;;4970248;28;19934;-72
2024/02/08 02:04:18;;;;;;;;;;;5.30;89.90;;;;;;4970214;28;19949;-73
2024/02/08 02:06:53;;;;;;;;;;;5.20;89.90;;;;;;4970019;28;19926;-72
2024/02/08 02:09:25;;;;;;;;;;;5.20;90.00;;;;;;4969358;28;19979;-71
2024/02/08 02:12:01;;;;;;;;;;;5.30;90.00;;;;;;4970625;28;20028;-70
2024/02/08 02:14:35;;;;;;;;;;;5.30;90.00;;;;;;4969464;28;19930;-72
2024/02/08 02:17:10;;;;;;;;;;;5.30;90.00;;;;;;4969818;28;19930;-72
2024/02/08 02:19:43;;;;;;;;;;;5.20;90.00;;;;;;4970576;28;19934;-71
2024/02/08 02:22:19;;;;;;;;;;;5.20;90.00;;;;;;4970846;28;19969;-73
2024/02/08 02:24:51;;;;;;;;;;;5.10;90.20;;;;;;4969809;28;19973;-70
2024/02/08 02:27:26;;;;;;;;;;;5.20;90.30;;;;;;4968747;28;19926;-73
2024/02/08 02:29:54;;;;;;;;;;;5.20;90.30;;;;;;4970278;28;20081;-71
2024/02/08 02:32:30;;;;;;;;;;;5.10;90.40;;;;;;4967007;28;19926;-73
2024/02/08 02:35:04;;;;;;;;;;;5.10;90.50;;;;;;4969966;28;20441;-73
2024/02/08 02:37:39;;;;;;;;;;;5.10;90.50;;;;;;4970315;28;19944;-74
2024/02/08 02:40:21;;;;;;;;;;;5.00;90.60;;;;;;4969111;28;19926;-72
2024/02/08 02:42:55;;;;;;;;;;;5.00;90.70;;;;;;4968367;28;19937;-73
2024/02/08 02:45:28;;;;;;;;;;;5.00;90.70;;;;;;4968642;28;19934;-70
2024/02/08 02:48:02;;;;;;;;;;;5.20;90.50;;;;;;4968667;28;19985;-71
2024/02/08 02:50:41;;;;;;;;;;;5.20;90.40;;;;;;4968763;28;19930;-72
2024/02/08 02:53:17;;;;;;;;;;;5.20;90.40;;;;;;4969852;28;19985;-62
2024/02/08 02:55:44;;;;;;;;;;;5.20;90.40;;;;;;4968946;28;19976;-62
2024/02/08 02:58:16;;;;;;;;;;;5.20;90.40;;;;;;4969840;28;19936;-62
2024/02/08 03:00:59;;;;;;;;;;;5.20;90.50;;;;;;4966669;28;19930;-61
2024/02/08 03:03:37;;;;;;;;;;;5.20;90.40;;;;;;4968693;28;20033;-61
2024/02/08 03:06:14;;;;;;;;;;;5.20;90.30;;;;;;4969543;28;19934;-61
2024/02/08 03:08:49;;;;;;;;;;;5.20;90.30;;;;;;4969090;28;19997;-61
2024/02/08 03:11:23;;;;;;;;;;;5.30;90.40;;;;;;4967508;28;20399;-60
2024/02/08 03:13:56;;;;;;;;;;;5.20;90.30;;;;;;4969538;28;20017;-61
2024/02/08 03:16:36;;;;;;;;;;;5.20;90.50;;;;;;4965828;28;19930;-62
2024/02/08 03:19:11;;;;;;;;;;;5.20;90.50;;;;;;4968120;28;19934;-62
2024/02/08 03:21:45;;;;;;;;;;;5.20;90.50;;;;;;4968860;28;20377;-60
2024/02/08 03:24:19;;;;;;;;;;;5.20;90.50;;;;;;4965429;28;19989;-62
2024/02/08 03:26:55;;;;;;;;;;;5.20;90.50;;;;;;4967631;28;20388;-61
2024/02/08 03:29:28;;;;;;;;;;;5.20;90.60;;;;;;4968386;28;19930;-61
2024/02/08 03:31:55;;;;;;;;;;;5.20;90.60;;;;;;4969284;28;19926;-61
2024/02/08 03:34:30;;;;;;;;;;;5.20;90.60;;;;;;4968370;28;19988;-60
2024/02/08 03:37:06;;;;;;;;;;;5.20;90.60;;;;;;4968618;28;19934;-62
2024/02/08 03:39:41;;;;;;;;;;;5.20;90.50;;;;;;4969474;28;19930;-62
2024/02/08 03:42:16;;;;;;;;;;;5.30;90.60;;;;;;4969144;28;19961;-62
2024/02/08 03:44:50;;;;;;;;;;;5.30;90.70;;;;;;4965991;28;19937;-62
2024/02/08 03:47:23;;;;;;;;;;;5.30;90.50;;;;;;4963257;28;19926;-62
2024/02/08 03:49:59;;;;;;;;;;;5.30;90.70;;;;;;4966772;28;19958;-61
2024/02/08 03:52:32;;;;;;;;;;;5.20;90.70;;;;;;4965621;28;20361;-62
2024/02/08 03:55:08;;;;;;;;;;;5.20;90.70;;;;;;4966878;28;20404;-60
2024/02/08 03:57:41;;;;;;;;;;;5.30;90.80;;;;;;4965726;28;19951;-61
2024/02/08 04:00:22;;;;;;;;;;;5.30;90.80;;;;;;4964911;28;19961;-62
2024/02/08 04:02:57;;;;;;;;;;;5.20;90.80;;;;;;4961968;28;20514;-60
2024/02/08 04:05:42;;;;;;;;;;;5.30;90.80;;;;;;4968747;28;19933;-61
2024/02/08 04:08:52;;;;;;;;;;;5.30;90.80;;;;;;4966507;28;19927;-60
2024/02/08 04:54:26;;;;;;;;;;;5.20;90.90;;;;;;4965947;28;19934;-59
2024/02/08 04:57:00;;;;;;;;;;;5.30;91.00;;;;;;4968014;28;19936;-60
2024/02/08 04:59:35;;;;;;;;;;;5.40;91.00;;;;;;4965680;28;19932;-61
2024/02/08 05:02:10;;;;;;;;;;;5.40;91.00;;;;;;4967509;28;20028;-60
2024/02/08 05:04:48;;;;;;;;;;;5.40;90.90;;;;;;4966106;28;19941;-60
2024/02/08 05:07:26;;;;;;;;;;;5.40;90.80;;;;;;4966650;28;19927;-62
2024/02/08 05:09:59;;;;;;;;;;;5.30;90.70;;;;;;4968758;28;20025;-60
2024/02/08 05:12:32;;;;;;;;;;;5.30;90.90;;;;;;4970409;28;19957;-61
2024/02/08 05:15:12;;;;;;;;;;;5.30;91.00;;;;;;4968129;28;20364;-61
2024/02/08 05:17:47;;;;;;;;;;;5.30;90.90;;;;;;4971503;28;19948;-62
2024/02/08 05:20:19;;;;;;;;;;;5.40;90.90;;;;;;4971997;28;19926;-62
2024/02/08 05:22:52;;;;;;;;;;;5.40;90.70;;;;;;4969945;28;19933;-62
2024/02/08 05:25:27;;;;;;;;;;;5.40;90.80;;;;;;4969149;28;19930;-62
2024/02/08 05:28:03;;;;;;;;;;;5.30;90.90;;;;;;4969678;28;19926;-62
2024/02/08 05:30:32;;;;;;;;;;;5.40;90.90;;;;;;4966662;28;20428;-61
2024/02/08 05:33:08;;;;;;;;;;;5.40;91.00;;;;;;4971294;28;19933;-61
2024/02/08 05:35:44;;;;;;;;;;;5.30;91.00;;;;;;4971822;28;19964;-62
2024/02/08 05:38:16;;;;;;;;;;;5.40;91.00;;;;;;4970175;28;19944;-62
2024/02/08 05:40:51;;;;;;;;;;;5.30;91.00;;;;;;4970487;28;19970;-62
2024/02/08 05:43:19;;;;;;;;;;;5.40;90.90;;;;;;4971059;28;20001;-61
2024/02/08 05:45:52;;;;;;;;;;;5.30;90.90;;;;;;4965895;28;19941;-61
2024/02/08 05:48:27;;;;;;;;;;;5.30;90.90;;;;;;4968575;28;19930;-62
2024/02/08 05:51:02;;;;;;;;;;;5.30;90.90;;;;;;4969664;28;19930;-61
2024/02/08 05:53:40;;;;;;;;;;;5.40;90.90;;;;;;4971583;28;20017;-61
2024/02/08 05:56:15;;;;;;;;;;;5.40;91.00;;;;;;4971143;28;19926;-62
2024/02/08 05:58:51;;;;;;;;;;;5.40;91.00;;;;;;4968539;28;19934;-62
2024/02/08 06:01:25;;;;;;;;;;;5.40;91.00;;;;;;4968046;28;19930;-60
2024/02/08 06:04:02;;;;;;;;;;;5.40;90.90;;;;;;4971104;28;19932;-61
2024/02/08 06:06:38;;;;;;;;;;;5.40;90.90;;;;;;4969854;28;19981;-60
2024/02/08 06:09:33;;;;;;;;;;;5.40;91.00;;;;;;4969259;28;19933;-61
2024/02/08 06:12:09;;;;;;;;;;;5.40;91.00;;;;;;4966827;28;19941;-62
2024/02/08 06:14:43;;;;;;;;;;;5.40;90.90;;;;;;4967671;28;19926;-62
2024/02/08 06:17:23;;;;;;;;;;;5.40;90.90;;;;;;4967962;28;19926;-62
2024/02/08 06:20:00;;;;;;;;;;;5.40;90.90;;;;;;4967704;28;19937;-60
2024/02/08 06:22:39;;;;;;;;;;;5.40;90.90;;;;;;4965569;28;19930;-62
2024/02/08 06:25:27;;;;;;;;;;;5.40;90.90;;;;;;4969969;28;19926;-61
2024/02/08 06:28:01;;;;;;;;;;;5.40;90.90;;;;;;4970211;28;19937;-61
2024/02/08 06:30:36;;;;;;;;;;;5.40;90.90;;;;;;4965737;28;19930;-61
2024/02/08 06:33:16;;;;;;;;;;;5.40;90.90;;;;;;4968616;28;19930;-64
2024/02/08 06:35:56;;;;;;;;;;;5.40;90.90;;;;;;4967795;28;19926;-61
2024/02/08 06:38:40;;;;;;;;;;;5.30;91.00;;;;;;4966421;28;20443;-64
2024/02/08 06:41:23;;;;;;;;;;;5.30;91.10;;;;;;4964921;28;19930;-63
2024/02/08 06:44:42;;;;;;;;;;;5.30;91.10;;;;;;4965587;28;19937;-60
2024/02/08 06:47:17;;;;;;;;;;;5.30;91.20;;;;;;4968106;28;19926;-61
2024/02/08 07:39:30;;;;;;;;;;;5.50;91.00;;;;;;4968065;28;19973;-62
2024/02/08 07:41:53;;;;;;;;;;;5.50;90.80;;;;;;4963992;28;19937;-61
2024/02/08 07:44:30;;;;;;;;;;;5.40;91.00;;;;;;4964084;28;19934;-61
2024/02/08 07:47:24;;;;;;;;;;;5.50;91.00;;;;;;4962928;28;20383;-62
2024/02/08 07:50:05;;;;;;;;;;;5.50;90.90;;;;;;4964852;28;20175;-62
2024/02/08 07:52:45;;;;;;;;;;;5.50;90.80;;;;;;4962895;28;19930;-60
2024/02/08 07:55:26;;;;;;;;;;;5.50;90.80;;;;;;4968580;28;19973;-61
2024/02/08 07:58:08;;;;;;;;;;;5.60;90.80;;;;;;4969668;28;20555;-61
2024/02/08 08:00:43;;;;;;;;;;;5.50;90.70;;;;;;4963672;28;20317;-63
2024/02/08 08:03:17;;;;;;;;;;;5.60;90.70;;;;;;4967650;28;20385;-63
2024/02/08 08:05:56;;;;;;;;;;;5.70;90.90;;;;;;4969553;28;19930;-60
2024/02/08 08:08:32;;;;;;;;;;;5.70;90.60;;;;;;4969848;28;19934;-61
2024/02/08 08:11:06;;;;;;;;;;;5.70;90.80;;;;;;4968939;28;20017;-61
2024/02/08 08:14:06;;;;;;;;;;;5.60;91.00;;;;;;4970294;28;19926;-61
2024/02/08 08:17:07;;;;;;;;;;;5.60;91.10;;;;;;4968752;28;20061;-62
2024/02/08 08:19:41;;;;;;;;;;;5.60;90.90;;;;;;4964775;28;19941;-60
2024/02/08 08:25:28;;;;;;;;;;;5.70;90.90;;;;;;4957049;28;19980;-61
2024/02/08 08:28:10;;;;;;;;;;;5.70;90.70;;;;;;4968100;28;19961;-62
2024/02/08 08:30:53;;;;;;;;;;;5.70;90.90;;;;;;4965001;28;19926;-61
2024/02/08 08:36:28;;;;;;;;;;;5.70;90.70;;;;;;4966848;28;20297;-62
2024/02/08 08:42:05;;;;;;;;;;;5.60;91.00;;;;;;4881689;29;19935;-62
2024/02/08 08:44:39;;;;;;;;;;;5.60;91.00;;;;;;4951810;28;20404;-60
2024/02/08 08:47:13;;;;;;;;;;;5.60;91.00;;;;;;4967803;28;19937;-61
2024/02/08 08:49:50;;;;;;;;;;;5.70;91.00;;;;;;4971241;28;19934;-60
2024/02/08 08:52:27;;;;;;;;;;;5.70;91.00;;;;;;4970065;28;20009;-60
2024/02/08 08:55:10;;;;;;;;;;;5.70;91.10;;;;;;4968189;28;19933;-60
2024/02/08 08:57:44;;;;;;;;;;;5.70;90.90;;;;;;4967886;28;19942;-60
2024/02/08 09:00:31;;;;;;;;;;;5.80;91.00;;;;;;4969299;28;20377;-62
2024/02/08 09:03:05;;;;;;;;;;;5.80;90.90;;;;;;4968543;28;20020;-60
2024/02/08 09:05:43;;;;;;;;;;;5.70;91.00;;;;;;4969023;28;20021;-61
2024/02/08 09:08:21;;;;;;;;;;;5.80;91.10;;;;;;4968939;28;19973;-60
2024/02/08 09:10:56;;;;;;;;;;;5.90;91.20;;;;;;4968281;28;19932;-61
2024/02/08 09:13:30;;;;;;;;;;;6.00;90.80;;;;;;4972744;28;19989;-60
2024/02/08 09:19:04;;;;;;;;;;;6.00;90.80;;;;;;4967477;28;20325;-60
2024/02/08 09:21:39;;;;;;;;;;;6.00;90.70;;;;;;4970021;28;19933;-60
2024/02/08 09:24:17;;;;;;;;;;;5.90;91.00;;;;;;4972278;28;19996;-61
2024/02/08 09:27:00;;;;;;;;;;;5.90;91.00;;;;;;4965668;28;19934;-59
2024/02/08 09:29:38;;;;;;;;;;;6.00;90.80;;;;;;4969465;28;19933;-61
2024/02/08 09:32:43;;;;;;;;;;;6.10;90.80;;;;;;4969231;28;20811;-62
2024/02/08 09:35:13;;;;;;;;;;;6.10;90.80;;;;;;4970952;28;20006;-62
2024/02/08 09:37:47;;;;;;;;;;;6.10;90.70;;;;;;4969290;28;19976;-60
2024/02/08 09:40:42;;;;;;;;;;;6.10;90.90;;;;;;4970742;28;19933;-61
2024/02/08 09:43:18;;;;;;;;;;;6.10;90.80;;;;;;4970875;28;19934;-61
2024/02/08 09:46:05;;;;;;;;;;;6.00;90.90;;;;;;4965899;28;20385;-61
2024/02/08 09:48:46;;;;;;;;;;;6.20;90.90;;;;;;4970088;28;20408;-61
2024/02/08 09:51:24;;;;;;;;;;;6.20;90.90;;;;;;4969245;28;20382;-59
2024/02/08 09:54:15;;;;;;;;;;;6.20;90.90;;;;;;4965227;28;19926;-60
2024/02/08 09:56:51;;;;;;;;;;;6.20;90.90;;;;;;4969438;28;19926;-61
2024/02/08 09:59:50;;;;;;;;;;;6.30;90.70;;;;;;4965867;28;19930;-59
2024/02/08 10:02:24;;;;;;;;;;;6.30;90.60;;;;;;4969798;28;20032;-71
2024/02/08 10:04:57;;;;;;;;;;;6.30;90.70;;;;;;4966739;28;19936;-71
2024/02/08 10:07:34;;;;;;;;;;;6.30;90.80;;;;;;4970035;28;19937;-71
2024/02/08 10:10:20;;;;;;;;;;;6.40;90.70;;;;;;4968753;28;19937;-72
2024/02/08 10:13:04;;;;;;;;;;;6.40;90.70;;;;;;4971312;28;19926;-74
2024/02/08 10:15:39;;;;;;;;;;;6.40;90.60;;;;;;4968170;28;19929;-71
2024/02/08 10:18:13;;;;;;;;;;;6.40;90.60;;;;;;4963835;28;19944;-72
2024/02/08 10:20:47;;;;;;;;;;;6.40;90.60;;;;;;4966464;28;19933;-72
2024/02/08 10:23:34;;;;;;;;;;;6.40;90.60;;;;;;4968959;28;19937;-70
2024/02/08 10:26:26;;;;;;;;;;;6.50;90.60;;;;;;4970095;28;19930;-73
2024/02/08 10:29:07;;;;;;;;;;;6.40;90.80;;;;;;4964927;28;19949;-73
2024/02/08 10:31:41;;;;;;;;;;;6.40;90.90;;;;;;4967835;28;19981;-72
2024/02/08 10:34:32;;;;;;;;;;;6.50;91.00;;;;;;4967002;28;19930;-72
2024/02/08 10:37:08;;;;;;;;;;;6.50;91.00;;;;;;4968914;28;19930;-72
2024/02/08 10:39:57;;;;;;;;;;;6.50;90.80;;;;;;4971017;28;19973;-72
2024/02/08 10:42:38;;;;;;;;;;;6.50;91.00;;;;;;4962796;28;20366;-72
2024/02/08 10:45:14;;;;;;;;;;;6.50;90.80;;;;;;4965931;28;19937;-71
2024/02/08 10:47:48;;;;;;;;;;;6.60;91.00;;;;;;4964325;28;19926;-70
2024/02/08 10:50:27;;;;;;;;;;;6.60;91.00;;;;;;4969549;28;19933;-71
2024/02/08 10:53:01;;;;;;;;;;;6.60;90.90;;;;;;4969230;28;19937;-72
2024/02/08 10:55:37;;;;;;;;;;;6.50;91.10;;;;;;4969472;28;20021;-72
2024/02/08 10:58:26;;;;;;;;;;;6.50;91.30;;;;;;4968497;28;19977;-70
2024/02/08 11:01:13;;;;;;;;;;;6.50;91.30;;;;;;4967617;28;19930;-71
2024/02/08 11:03:53;;;;;;;;;;;6.50;91.40;;;;;;4967589;28;19934;-72
2024/02/08 11:06:29;;;;;;;;;;;6.60;91.40;;;;;;4969280;28;19933;-67
2024/02/08 11:09:14;;;;;;;;;;;6.70;91.10;;;;;;4968567;28;19926;-72
2024/02/08 11:11:51;;;;;;;;;;;6.70;91.00;;;;;;4969141;28;19933;-70
2024/02/08 11:14:27;;;;;;;;;;;6.60;91.40;;;;;;4964132;28;19930;-67
2024/02/08 11:17:05;;;;;;;;;;;6.70;91.60;;;;;;4969005;28;19930;-68
2024/02/08 11:19:39;;;;;;;;;;;6.70;91.30;;;;;;4970276;28;19926;-66
2024/02/08 11:22:18;;;;;;;;;;;6.70;91.30;;;;;;4967366;28;19930;-67
2024/02/08 11:24:57;;;;;;;;;;;6.70;91.50;;;;;;4969701;28;19989;-68
2024/02/08 11:27:34;;;;;;;;;;;6.70;91.50;;;;;;4969748;28;19930;-66
2024/02/08 11:30:11;;;;;;;;;;;6.70;91.40;;;;;;4968280;28;19992;-67
2024/02/08 11:32:56;;;;;;;;;;;6.80;91.40;;;;;;4968868;28;19926;-68
2024/02/08 11:35:31;;;;;;;;;;;6.70;91.50;;;;;;4968705;28;19985;-67
2024/02/08 11:38:09;;;;;;;;;;;6.80;91.50;;;;;;4963619;28;20334;-67
2024/02/08 11:40:45;;;;;;;;;;;6.80;91.50;;;;;;4965916;28;19940;-68
2024/02/08 11:43:23;;;;;;;;;;;6.70;91.70;;;;;;4958833;28;19971;-67
2024/02/08 11:45:58;;;;;;;;;;;6.70;91.80;;;;;;4961199;28;20428;-69
2024/02/08 11:48:41;;;;;;;;;;;6.70;91.80;;;;;;4951916;28;19930;-68
2024/02/08 11:51:15;;;;;;;;;;;6.70;92.00;;;;;;4959770;28;20013;-67
2024/02/08 11:53:51;;;;;;;;;;;6.70;92.00;;;;;;4960142;28;19941;-66
2024/02/08 11:56:29;;;;;;;;;;;6.70;92.00;;;;;;4966682;28;19941;-67
2024/02/08 11:59:05;;;;;;;;;;;6.80;91.90;;;;;;4965690;28;19934;-68
2024/02/08 12:01:43;;;;;;;;;;;6.90;91.80;;;;;;4962639;28;19945;-67
2024/02/08 12:04:16;;;;;;;;;;;6.90;91.80;;;;;;4965738;28;19930;-66
2024/02/08 12:06:49;;;;;;;;;;;7.00;91.60;;;;;;4960416;28;19983;-67
2024/02/08 12:09:30;;;;;;;;;;;6.90;91.70;;;;;;4959317;28;19930;-67
2024/02/08 12:12:03;;;;;;;;;;;6.90;91.60;;;;;;4961332;28;20103;-68
2024/02/08 12:14:40;;;;;;;;;;;6.90;92.00;;;;;;4968399;28;19941;-67
2024/02/08 12:17:22;;;;;;;;;;;6.90;92.00;;;;;;4964877;28;19938;-68
2024/02/08 12:20:09;;;;;;;;;;;7.00;92.00;;;;;;4963446;28;19926;-67
2024/02/08 12:22:42;;;;;;;;;;;7.00;91.90;;;;;;4966917;28;20533;-61
2024/02/08 12:25:17;;;;;;;;;;;7.00;92.00;;;;;;4969189;28;19937;-61
2024/02/08 12:27:51;;;;;;;;;;;6.90;92.10;;;;;;4964134;28;20381;-60
2024/02/08 12:30:25;;;;;;;;;;;7.00;92.20;;;;;;4965728;28;20604;-61
2024/02/08 12:33:07;;;;;;;;;;;7.00;92.20;;;;;;4965651;28;19977;-59
2024/02/08 12:35:41;;;;;;;;;;;7.00;92.20;;;;;;4962838;28;20017;-60
2024/02/08 12:38:16;;;;;;;;;;;6.90;92.30;;;;;;4969255;28;19926;-60
2024/02/08 12:40:50;;;;;;;;;;;7.00;92.40;;;;;;4973469;28;20355;-58
2024/02/08 12:43:23;;;;;;;;;;;7.00;92.30;;;;;;4973963;28;19930;-59
2024/02/08 12:45:56;;;;;;;;;;;7.00;92.30;;;;;;4971483;28;19930;-60
2024/02/08 12:48:31;;;;;;;;;;;7.00;92.40;;;;;;4970522;28;19932;-60
2024/02/08 12:51:05;;;;;;;;;;;7.10;92.30;;;;;;4972473;28;20298;-59
2024/02/08 12:53:39;;;;;;;;;;;7.10;92.30;;;;;;4972718;28;19997;-59
2024/02/08 12:56:12;;;;;;;;;;;7.10;92.30;;;;;;4971413;28;19926;-59
2024/02/08 12:58:45;;;;;;;;;;;7.20;92.20;;;;;;4973644;28;19930;-60
2024/02/08 13:01:18;;;;;;;;;;;7.20;92.20;;;;;;4971276;28;19988;-59
2024/02/08 13:03:54;;;;;;;;;;;7.10;92.10;;;;;;4971664;28;19930;-60
2024/02/08 13:06:27;;;;;;;;;;;7.20;92.20;;;;;;4972585;28;20620;-60
2024/02/08 13:09:25;;;;;;;;;;;7.20;92.20;;;;;;4972611;28;19934;-59
2024/02/08 13:12:14;;;;;;;;;;;7.20;92.10;;;;;;4970726;28;19926;-59
2024/02/08 13:15:02;;;;;;;;;;;7.20;92.20;;;;;;4971992;28;19926;-61
2024/02/08 13:17:35;;;;;;;;;;;7.20;92.20;;;;;;4972147;28;20008;-60
2024/02/08 13:20:11;;;;;;;;;;;7.20;92.30;;;;;;4971284;28;19934;-60
2024/02/08 13:22:45;;;;;;;;;;;7.20;92.30;;;;;;4972470;28;19926;-58
2024/02/08 13:25:19;;;;;;;;;;;7.30;92.20;;;;;;4972267;28;19930;-59
2024/02/08 13:27:53;;;;;;;;;;;7.30;92.20;;;;;;4971474;28;19973;-59
2024/02/08 13:30:26;;;;;;;;;;;7.30;92.30;;;;;;4968881;28;19930;-58
2024/02/08 13:33:05;;;;;;;;;;;7.30;92.20;;;;;;4970129;28;19973;-67
2024/02/08 13:35:41;;;;;;;;;;;7.30;92.30;;;;;;4970513;28;20024;-67
2024/02/08 13:38:15;;;;;;;;;;;7.30;92.40;;;;;;4971127;28;19934;-68
2024/02/08 13:40:44;;;;;;;;;;;7.30;92.40;;;;;;4970482;28;20357;-66
2024/02/08 13:43:18;;;;;;;;;;;7.30;92.40;;;;;;4971549;28;19930;-66
2024/02/08 13:45:52;;;;;;;;;;;7.30;92.30;;;;;;4970459;28;19930;-66
2024/02/08 13:48:28;;;;;;;;;;;7.30;92.30;;;;;;4971584;28;20005;-67
2024/02/08 13:51:06;;;;;;;;;;;7.30;92.30;;;;;;4971160;28;19950;-67
2024/02/08 13:53:41;;;;;;;;;;;7.30;92.30;;;;;;4969526;28;19964;-67
2024/02/08 13:56:14;;;;;;;;;;;7.30;92.30;;;;;;4970028;28;19984;-65
2024/02/08 13:58:48;;;;;;;;;;;7.30;92.30;;;;;;4971276;28;19930;-66
2024/02/08 14:01:25;;;;;;;;;;;7.30;92.40;;;;;;4969976;28;20008;-67
2024/02/08 14:03:58;;;;;;;;;;;7.30;92.40;;;;;;4970775;28;19926;-65
2024/02/08 14:06:41;;;;;;;;;;;7.30;92.40;;;;;;4970052;28;20492;-66
2024/02/08 14:09:20;;;;;;;;;;;7.30;92.30;;;;;;4970383;28;20496;-66
2024/02/08 14:11:55;;;;;;;;;;;7.30;92.50;;;;;;4971291;28;19934;-66
2024/02/08 14:14:40;;;;;;;;;;;7.30;92.50;;;;;;4970691;28;20048;-66
2024/02/08 14:17:20;;;;;;;;;;;7.40;92.50;;;;;;4971114;28;19930;-67
2024/02/08 14:19:55;;;;;;;;;;;7.40;92.60;;;;;;4971039;28;19934;-66
2024/02/08 14:22:38;;;;;;;;;;;7.40;92.60;;;;;;4969575;28;20004;-67
2024/02/08 14:25:23;;;;;;;;;;;7.40;92.60;;;;;;4971187;28;20356;-68
2024/02/08 14:27:56;;;;;;;;;;;7.40;92.60;;;;;;4970546;28;19985;-67
2024/02/08 14:30:34;;;;;;;;;;;7.40;92.70;;;;;;4970808;28;19934;-65
2024/02/08 14:33:07;;;;;;;;;;;7.40;92.70;;;;;;4970301;28;19933;-65
2024/02/08 14:35:40;;;;;;;;;;;7.40;92.60;;;;;;4970624;28;19926;-67
2024/02/08 14:38:14;;;;;;;;;;;7.50;92.80;;;;;;4968801;28;19933;-66
2024/02/08 14:40:48;;;;;;;;;;;7.50;92.80;;;;;;4969989;28;19937;-66
2024/02/08 14:43:31;;;;;;;;;;;7.60;93.00;;;;;;4968268;28;20390;-60
2024/02/08 14:46:04;;;;;;;;;;;7.70;93.20;;;;;;4969257;28;19926;-60
2024/02/08 14:48:38;;;;;;;;;;;7.70;93.10;;;;;;4969765;28;19933;-60
2024/02/08 14:51:29;;;;;;;;;;;7.70;93.30;;;;;;4969840;28;19934;-61
2024/02/08 14:54:03;;;;;;;;;;;7.80;93.40;;;;;;4969432;28;21096;-60
2024/02/08 14:56:41;;;;;;;;;;;7.80;93.20;;;;;;4969591;28;19926;-61
2024/02/08 14:59:14;;;;;;;;;;;7.90;93.40;;;;;;4968518;28;19930;-61
2024/02/08 15:01:52;;;;;;;;;;;7.90;93.50;;;;;;4969790;28;19930;-62
2024/02/08 15:04:25;;;;;;;;;;;8.00;93.80;;;;;;4968961;28;19961;-62
2024/02/08 15:07:08;;;;;;;;;;;8.00;93.80;;;;;;4969529;28;19934;-62
2024/02/08 15:09:48;;;;;;;;;;;8.10;93.80;;;;;;4969901;28;19930;-62
2024/02/08 15:12:27;;;;;;;;;;;8.10;93.90;;;;;;4969912;28;19933;-61
2024/02/08 15:15:05;;;;;;;;;;;8.10;93.90;;;;;;4968659;28;20131;-62
2024/02/08 15:17:43;;;;;;;;;;;8.10;93.90;;;;;;4969803;28;19926;-61
2024/02/08 15:23:11;;;;;;;;;;;8.20;94.00;;;;;;4967686;28;19930;-60
2024/02/08 15:25:44;;;;;;;;;;;8.20;94.10;;;;;;4969433;28;19930;-61
2024/02/08 15:28:31;;;;;;;;;;;8.20;94.10;;;;;;4961060;28;20423;-60
2024/02/08 15:31:15;;;;;;;;;;;8.30;94.10;;;;;;4968280;28;19933;-62
2024/02/08 15:36:47;;;;;;;;;;;8.40;94.20;;;;;;4962350;28;19934;-62
2024/02/08 15:39:56;;;;;;;;;;;8.40;94.40;;;;;;4967686;28;19937;-62
2024/02/08 15:42:35;;;;;;;;;;;8.50;94.40;;;;;;4969545;28;19987;-61
2024/02/08 15:45:13;;;;;;;;;;;8.50;94.50;;;;;;4969525;28;19933;-62
2024/02/08 15:50:46;;;;;;;;;;;8.60;94.60;;;;;;4947496;28;20393;-60
2024/02/08 15:53:19;;;;;;;;;;;8.60;94.60;;;;;;4969546;28;20017;-67
2024/02/08 15:55:56;;;;;;;;;;;8.60;94.60;;;;;;4967981;28;19926;-68
2024/02/08 15:58:30;;;;;;;;;;;8.70;94.70;;;;;;4969826;28;19942;-68
2024/02/08 16:01:20;;;;;;;;;;;8.70;94.60;;;;;;4969091;28;19926;-67
2024/02/08 16:03:55;;;;;;;;;;;8.70;94.70;;;;;;4966363;28;20035;-67
2024/02/08 16:06:42;;;;;;;;;;;8.70;94.70;;;;;;4969737;28;20428;-68
2024/02/08 16:09:32;;;;;;;;;;;8.70;94.70;;;;;;4969662;28;19930;-67
2024/02/08 16:12:22;;;;;;;;;;;8.70;94.70;;;;;;4968479;28;19926;-67
2024/02/08 16:15:05;;;;;;;;;;;8.70;94.70;;;;;;4966608;28;20024;-68
2024/02/08 16:17:39;;;;;;;;;;;8.80;94.80;;;;;;4970005;28;19926;-68
2024/02/08 16:20:24;;;;;;;;;;;8.90;94.80;;;;;;4968273;28;19937;-68
2024/02/08 16:23:04;;;;;;;;;;;8.90;94.80;;;;;;4968524;28;20374;-68
2024/02/08 16:25:45;;;;;;;;;;;9.00;94.80;;;;;;4969844;28;20020;-68
2024/02/08 16:28:19;;;;;;;;;;;8.90;94.80;;;;;;4958610;28;19937;-67
2024/02/08 16:31:10;;;;;;;;;;;9.00;94.80;;;;;;4969569;28;19933;-68
2024/02/08 16:33:48;;;;;;;;;;;9.00;94.80;;;;;;4969228;28;20012;-69
2024/02/08 16:39:30;;;;;;;;;;;9.00;94.90;;;;;;4966796;28;20289;-69
2024/02/08 16:42:17;;;;;;;;;;;9.00;94.90;;;;;;4969649;28;19926;-68
2024/02/08 16:44:56;;;;;;;;;;;9.10;94.90;;;;;;4969141;28;19926;-68
2024/02/08 16:47:35;;;;;;;;;;;9.00;94.90;;;;;;4967918;28;19996;-68
2024/02/08 16:50:17;;;;;;;;;;;9.10;94.90;;;;;;4968669;28;20016;-67
2024/02/08 16:52:58;;;;;;;;;;;9.10;94.90;;;;;;4968140;28;19934;-68
2024/02/08 16:55:36;;;;;;;;;;;9.20;94.90;;;;;;4967315;28;20389;-68
2024/02/08 16:58:28;;;;;;;;;;;9.20;95.00;;;;;;4968551;28;20016;-68
2024/02/08 17:01:05;;;;;;;;;;;9.20;95.00;;;;;;4968301;28;19926;-69
2024/02/08 17:04:00;;;;;;;;;;;9.30;95.00;;;;;;4968827;28;20021;-61
2024/02/08 17:06:43;;;;;;;;;;;9.30;95.00;;;;;;4969519;28;20461;-62
2024/02/08 17:09:24;;;;;;;;;;;9.40;95.00;;;;;;4972024;28;20016;-61
2024/02/08 17:12:00;;;;;;;;;;;9.40;95.00;;;;;;4971488;28;20408;-62
2024/02/08 17:14:36;;;;;;;;;;;9.40;95.00;;;;;;4972659;28;19930;-61
2024/02/08 17:17:21;;;;;;;;;;;9.40;95.00;;;;;;4970994;28;19934;-61
2024/02/08 17:20:02;;;;;;;;;;;9.40;95.10;;;;;;4969874;28;19953;-62
2024/02/08 17:22:49;;;;;;;;;;;9.40;95.10;;;;;;4971373;28;19930;-62
2024/02/08 17:25:25;;;;;;;;;;;9.50;95.00;;;;;;4970703;28;19933;-62
2024/02/08 17:28:14;;;;;;;;;;;9.40;95.00;;;;;;4970794;28;19927;-61